Time;durP1;ratioP1;P1;durP2;ratioP2;P2;SDS_P1;SDS_P2;PMS_P1;PMS_P2;Temp;Humidity;BMP_temperature;BMP_pressure;BME280_temperature;BME280_humidity;BME280_pressure;Samples;Min_cycle;Max_cycle;Signal;HPM_P1;HPM_P2
2022/09/16 00:00:21;;;;;;;4.13;1.05;;;13.40;99.30;;;;;;4954381;28;93348;-73
2022/09/16 00:02:51;;;;;;;6.75;1.65;;;13.50;99.40;;;;;;4939094;28;93316;-73
2022/09/16 00:05:18;;;;;;;5.40;1.50;;;13.60;99.40;;;;;;4939619;28;93753;-73
2022/09/16 00:07:45;;;;;;;5.80;2.85;;;13.60;99.60;;;;;;4937744;28;92489;-73
2022/09/16 00:10:13;;;;;;;3.40;1.10;;;13.60;99.50;;;;;;4938769;28;108573;-73
2022/09/16 00:12:40;;;;;;;3.78;1.40;;;13.70;99.40;;;;;;4937912;28;95615;-73
2022/09/16 00:15:09;;;;;;;7.40;1.17;;;13.70;99.40;;;;;;4937522;28;96581;-72
2022/09/16 00:17:36;;;;;;;5.32;1.10;;;13.70;99.40;;;;;;4938115;28;92566;-73
2022/09/16 00:20:05;;;;;;;6.07;1.17;;;13.70;99.30;;;;;;4937688;28;92569;-73
2022/09/16 00:22:32;;;;;;;3.53;1.20;;;13.70;99.30;;;;;;4953810;28;93581;-73
2022/09/16 00:24:59;;;;;;;3.20;3.00;;;13.60;99.30;;;;;;4953882;28;93263;-73
2022/09/16 00:27:26;;;;;;;5.45;1.20;;;13.60;99.40;;;;;;4937825;28;92529;-73
2022/09/16 00:29:53;;;;;;;3.42;1.35;;;13.50;99.50;;;;;;4939134;28;91678;-73
2022/09/16 00:32:20;;;;;;;4.40;1.52;;;13.50;99.50;;;;;;4938914;28;93316;-73
2022/09/16 00:34:47;;;;;;;3.97;1.30;;;13.50;99.50;;;;;;4937802;28;93023;-72
2022/09/16 00:37:14;;;;;;;3.28;1.17;;;13.40;99.50;;;;;;4936410;28;94917;-72
2022/09/16 00:39:41;;;;;;;4.45;1.38;;;13.30;99.60;;;;;;4938979;28;92462;-72
2022/09/16 00:42:11;;;;;;;3.58;1.17;;;13.30;99.60;;;;;;4938593;28;93388;-73
2022/09/16 00:45:01;;;;;;;3.17;1.83;;;13.30;99.70;;;;;;4938598;28;93061;-72
2022/09/16 00:47:35;;;;;;;4.60;1.15;;;13.30;99.60;;;;;;4939093;28;92371;-72
2022/09/16 00:50:08;;;;;;;4.65;1.02;;;13.30;99.60;;;;;;4953941;28;93059;-72
2022/09/16 00:52:35;;;;;;;;;;;13.30;99.60;;;;;;4937815;28;93382;-72
2022/09/16 00:55:07;;;;;;;4.32;1.48;;;13.20;99.70;;;;;;4939702;28;93410;-72
2022/09/16 00:57:35;;;;;;;1.83;1.17;;;13.20;99.90;;;;;;4936188;28;93037;-73
2022/09/16 01:00:06;;;;;;;1.98;1.02;;;13.20;99.80;;;;;;4937171;28;92490;-73
2022/09/16 01:02:33;;;;;;;3.08;2.35;;;13.30;99.70;;;;;;4935535;28;98074;-72
2022/09/16 01:05:14;;;;;;;6.75;1.75;;;13.30;99.70;;;;;;4938149;28;94066;-72
2022/09/16 01:07:49;;;;;;;4.00;1.80;;;13.40;99.60;;;;;;4937436;28;92546;-72
2022/09/16 01:10:20;;;;;;;4.10;1.00;;;13.50;99.70;;;;;;4937136;28;92611;-73
2022/09/16 01:13:03;;;;;;;3.08;1.35;;;13.50;99.70;;;;;;4938576;28;93277;-72
2022/09/16 01:15:52;;;;;;;5.80;2.17;;;13.50;99.60;;;;;;4938311;28;93184;-72
2022/09/16 01:18:42;;;;;;;2.95;1.35;;;13.50;99.50;;;;;;4938119;28;92470;-73
2022/09/16 01:21:47;;;;;;;2.40;1.05;;;13.50;99.60;;;;;;4938341;28;91668;-73
2022/09/16 01:24:26;;;;;;;2.92;1.65;;;13.50;99.40;;;;;;4937125;28;93274;-73
2022/09/16 01:27:37;;;;;;;3.88;1.40;;;13.50;99.50;;;;;;4938249;28;93125;-72
2022/09/16 01:30:14;;;;;;;3.72;1.35;;;13.60;99.40;;;;;;4933830;28;96587;-72
2022/09/16 01:33:03;;;;;;;3.83;1.15;;;13.50;99.50;;;;;;4938119;28;92423;-72
2022/09/16 01:35:48;;;;;;;5.07;1.13;;;13.50;99.40;;;;;;4937867;28;92367;-73
2022/09/16 01:38:41;;;;;;;2.38;1.42;;;13.60;99.40;;;;;;4936412;28;95312;-73
2022/09/16 01:41:08;;;;;;;3.58;1.23;;;13.60;99.30;;;;;;4936280;28;92547;-72
2022/09/16 01:44:05;;;;;;;1.45;0.93;;;13.50;99.30;;;;;;4937723;28;93920;-72
2022/09/16 01:47:02;;;;;;;2.65;1.17;;;13.60;99.30;;;;;;4937886;28;93327;-72
2022/09/16 01:49:45;;;;;;;4.82;1.20;;;13.50;99.20;;;;;;4937506;28;93210;-73
2022/09/16 01:52:53;;;;;;;4.37;1.10;;;13.50;99.30;;;;;;4936613;28;92460;-73
2022/09/16 01:55:33;;;;;;;4.95;1.25;;;13.50;99.30;;;;;;4935098;28;92447;-72
2022/09/16 01:58:42;;;;;;;2.63;0.93;;;13.50;99.40;;;;;;4933004;28;98072;-72
2022/09/16 02:01:33;;;;;;;4.50;1.05;;;13.50;99.30;;;;;;4934896;28;95724;-72
2022/09/16 02:04:14;;;;;;;4.78;0.90;;;13.50;99.40;;;;;;4934813;28;94222;-72
2022/09/16 02:06:44;;;;;;;3.08;1.17;;;13.50;99.30;;;;;;4931352;28;92529;-73
2022/09/16 02:09:20;;;;;;;3.25;1.50;;;13.50;99.40;;;;;;4935725;28;96617;-73
2022/09/16 02:11:50;;;;;;;4.50;1.10;;;13.50;99.40;;;;;;4936163;28;96341;-72
2022/09/16 02:14:22;;;;;;;3.25;1.40;;;13.50;99.40;;;;;;4937154;28;92443;-72
2022/09/16 02:16:58;;;;;;;2.80;1.10;;;13.40;99.40;;;;;;4938045;28;91691;-73
2022/09/16 02:19:30;;;;;;;4.22;1.60;;;13.40;99.40;;;;;;4935925;28;94799;-73
2022/09/16 02:22:00;;;;;;;4.43;0.98;;;13.30;99.40;;;;;;4937280;28;93058;-73
2022/09/16 02:24:30;;;;;;;2.63;0.93;;;13.30;99.50;;;;;;4936296;28;94878;-73
2022/09/16 02:27:03;;;;;;;6.57;1.20;;;13.20;99.50;;;;;;4936037;28;92882;-73
2022/09/16 02:29:38;;;;;;;4.65;1.52;;;13.20;99.60;;;;;;4952101;28;93339;-73
2022/09/16 02:32:07;;;;;;;4.05;1.83;;;13.10;99.60;;;;;;4935551;28;93362;-73
2022/09/16 02:34:41;;;;;;;3.65;1.20;;;13.00;99.70;;;;;;4935663;28;99626;-72
2022/09/16 02:37:27;;;;;;;6.38;1.40;;;13.00;99.70;;;;;;4935437;28;92757;-73
2022/09/16 02:40:00;;;;;;;4.30;1.20;;;13.10;99.80;;;;;;4936685;28;93379;-72
2022/09/16 02:42:28;;;;;;;;;;;13.00;99.80;;;;;;4936037;28;95673;-72
2022/09/16 02:44:56;;;;;;;3.85;1.05;;;12.90;99.80;;;;;;4937021;28;92450;-72
2022/09/16 02:47:42;;;;;;;8.32;1.33;;;12.90;99.90;;;;;;4936879;28;93307;-72
2022/09/16 02:50:11;;;;;;;1.90;1.10;;;13.00;99.90;;;;;;4934202;28;96832;-73
2022/09/16 02:52:58;;;;;;;4.25;1.67;;;13.00;99.80;;;;;;4935194;28;100437;-72
2022/09/16 02:55:46;;;;;;;1.95;1.00;;;13.00;99.80;;;;;;4936935;28;92445;-72
2022/09/16 02:58:13;;;;;;;4.55;1.23;;;13.10;99.70;;;;;;4935284;28;92525;-73
2022/09/16 03:00:45;;;;;;;4.63;1.10;;;13.00;99.70;;;;;;4935354;28;93328;-73
2022/09/16 03:03:13;;;;;;;4.72;1.50;;;13.00;99.70;;;;;;4936576;28;92882;-73
2022/09/16 03:06:09;;;;;;;2.55;1.33;;;13.00;99.80;;;;;;4936713;28;92533;-73
2022/09/16 03:08:37;;;;;;;4.22;1.10;;;13.00;99.70;;;;;;4937188;28;91617;-72
2022/09/16 03:11:33;;;;;;;5.85;1.20;;;13.00;99.80;;;;;;4935210;28;95845;-72
2022/09/16 03:14:19;;;;;;;5.22;1.67;;;13.00;99.90;;;;;;4932982;28;93075;-72
2022/09/16 03:17:26;;;;;;;5.18;1.63;;;12.90;99.90;;;;;;4935742;28;94871;-72
2022/09/16 03:20:20;;;;;;;3.78;1.00;;;13.00;99.90;;;;;;4933478;28;92821;-73
2022/09/16 03:23:09;;;;;;;6.22;1.80;;;13.10;99.90;;;;;;4940010;28;93311;-73
2022/09/16 03:26:10;;;;;;;2.90;1.83;;;13.10;99.90;;;;;;4938320;28;95966;-73
2022/09/16 03:29:01;;;;;;;4.38;1.27;;;13.10;99.90;;;;;;4938584;28;92406;-73
2022/09/16 03:31:48;;;;;;;4.85;1.38;;;13.10;99.90;;;;;;4954626;28;92496;-73
2022/09/16 03:34:27;;;;;;;6.78;1.50;;;13.20;99.90;;;;;;4938122;28;94471;-73
2022/09/16 03:37:01;;;;;;;6.35;2.15;;;13.20;99.90;;;;;;4940092;28;93028;-73
2022/09/16 03:39:28;;;;;;;;;;;13.10;99.90;;;;;;4939135;28;92529;-72
2022/09/16 03:42:00;;;;;;;3.20;1.38;;;13.10;99.90;;;;;;4939113;28;104697;-73
2022/09/16 03:44:32;;;;;;;6.68;1.27;;;13.10;99.90;;;;;;4938315;28;95643;-73
2022/09/16 03:46:59;;;;;;;5.65;1.65;;;13.10;99.90;;;;;;4939324;28;95454;-72
2022/09/16 03:49:27;;;;;;;3.30;1.20;;;13.10;99.90;;;;;;4954495;28;92558;-73
2022/09/16 03:51:54;;;;;;;6.50;1.27;;;13.00;99.90;;;;;;4938183;28;92576;-72
2022/09/16 03:54:21;;;;;;;5.25;1.40;;;13.00;99.90;;;;;;4939111;28;93123;-72
2022/09/16 03:56:48;;;;;;;9.38;1.60;;;13.00;99.90;;;;;;4938163;28;92936;-72
2022/09/16 03:59:16;;;;;;;5.55;1.20;;;12.90;99.90;;;;;;4939470;28;93040;-72
2022/09/16 04:01:44;;;;;;;3.17;1.20;;;12.90;99.80;;;;;;4939788;28;91707;-72
2022/09/16 04:04:11;;;;;;;9.18;1.50;;;12.80;99.80;;;;;;4937904;28;93243;-72
2022/09/16 04:06:38;;;;;;;6.95;2.20;;;12.80;99.90;;;;;;4938058;28;95471;-73
2022/09/16 04:09:06;;;;;;;5.35;1.20;;;12.70;99.80;;;;;;4936629;28;94896;-73
2022/09/16 04:11:34;;;;;;;3.42;1.23;;;12.70;99.90;;;;;;4939059;28;92437;-73
2022/09/16 04:14:02;;;;;;;2.95;1.00;;;12.60;99.90;;;;;;4937712;28;95743;-72
2022/09/16 04:16:29;;;;;;;3.63;1.10;;;12.60;99.90;;;;;;4939056;28;92494;-72
2022/09/16 04:18:56;;;;;;;5.35;1.30;;;12.50;99.90;;;;;;4937929;28;93021;-73
2022/09/16 04:21:24;;;;;;;2.40;1.08;;;12.50;99.90;;;;;;4938828;28;98458;-72
2022/09/16 04:23:53;;;;;;;5.03;1.70;;;12.50;99.90;;;;;;4938947;28;93022;-73
2022/09/16 04:26:20;;;;;;;3.15;1.77;;;12.50;99.90;;;;;;4939253;28;93051;-73
2022/09/16 04:28:47;;;;;;;3.85;1.17;;;12.50;99.90;;;;;;4954267;28;92539;-72
2022/09/16 04:31:15;;;;;;;5.57;1.50;;;12.60;99.90;;;;;;4939117;28;92459;-72
2022/09/16 04:33:42;;;;;;;2.97;0.90;;;12.60;99.90;;;;;;4952499;28;95693;-73
2022/09/16 04:36:11;;;;;;;3.83;1.77;;;12.60;99.90;;;;;;4937072;28;98212;-72
2022/09/16 04:38:40;;;;;;;3.45;1.10;;;12.60;99.90;;;;;;4936990;28;100675;-72
2022/09/16 04:41:13;;;;;;;5.75;1.05;;;12.50;99.90;;;;;;4937357;28;92628;-72
2022/09/16 04:43:40;;;;;;;6.32;1.30;;;12.50;99.90;;;;;;4938605;28;93369;-72
2022/09/16 04:46:07;;;;;;;3.55;1.90;;;12.50;99.90;;;;;;4937485;28;92629;-72
2022/09/16 04:48:35;;;;;;;6.70;1.13;;;12.40;99.90;;;;;;4938674;28;92921;-72
2022/09/16 04:51:10;;;;;;;4.53;1.40;;;12.40;99.90;;;;;;4938791;28;95722;-73
2022/09/16 04:53:39;;;;;;;4.97;1.00;;;12.40;99.90;;;;;;4937203;28;92483;-72
2022/09/16 04:56:15;;;;;;;9.48;1.70;;;12.30;99.90;;;;;;4937168;28;93505;-72
2022/09/16 04:58:50;;;;;;;5.63;1.25;;;12.30;99.90;;;;;;4936037;28;94859;-72
2022/09/16 05:01:31;;;;;;;4.63;1.17;;;12.20;99.90;;;;;;4937114;28;92513;-73
2022/09/16 05:04:01;;;;;;;4.80;1.20;;;12.20;99.90;;;;;;4936909;28;95801;-73
2022/09/16 05:06:33;;;;;;;5.40;1.20;;;12.20;99.90;;;;;;4936573;28;95544;-72
2022/09/16 05:09:01;;;;;;;5.70;1.00;;;12.20;99.90;;;;;;4938645;28;92445;-72
2022/09/16 05:11:32;;;;;;;5.28;1.30;;;12.10;99.90;;;;;;4938257;28;92443;-72
2022/09/16 05:14:00;;;;;;;3.28;1.67;;;12.10;99.90;;;;;;4938561;28;93227;-72
2022/09/16 05:16:28;;;;;;;5.25;3.08;;;12.10;99.90;;;;;;4938248;28;92839;-72
2022/09/16 05:18:57;;;;;;;3.30;1.13;;;12.10;99.90;;;;;;4938565;28;92460;-72
2022/09/16 05:21:25;;;;;;;4.88;1.30;;;12.10;99.90;;;;;;4938191;28;92472;-72
2022/09/16 05:23:54;;;;;;;6.10;1.95;;;12.10;99.90;;;;;;4936823;28;95576;-72
2022/09/16 05:26:25;;;;;;;3.95;1.70;;;12.10;99.90;;;;;;4936530;28;95353;-72
2022/09/16 05:28:52;;;;;;;7.35;1.63;;;12.20;99.90;;;;;;4936987;28;92457;-72
2022/09/16 05:31:27;;;;;;;6.05;1.10;;;12.30;99.90;;;;;;4952886;28;93526;-72
2022/09/16 05:34:00;;;;;;;1.80;0.90;;;12.30;99.90;;;;;;4936795;28;94646;-73
2022/09/16 05:36:29;;;;;;;6.60;1.75;;;12.40;99.80;;;;;;4936575;28;92891;-73
2022/09/16 05:38:57;;;;;;;8.50;1.50;;;12.40;99.70;;;;;;4936915;28;92567;-72
2022/09/16 05:41:44;;;;;;;6.82;1.25;;;12.50;99.70;;;;;;4936268;28;91872;-72
2022/09/16 05:44:12;;;;;;;4.45;1.30;;;12.60;99.60;;;;;;4935936;28;92618;-72
2022/09/16 05:46:40;;;;;;;6.30;2.30;;;12.60;99.80;;;;;;4936460;28;93155;-72
2022/09/16 05:49:07;;;;;;;8.00;1.40;;;12.70;99.50;;;;;;4936581;28;94821;-72
2022/09/16 05:51:36;;;;;;;4.18;1.25;;;12.70;99.40;;;;;;4936240;28;92550;-73
2022/09/16 05:54:03;;;;;;;5.75;1.33;;;12.80;99.30;;;;;;4936110;28;95760;-73
2022/09/16 05:56:30;;;;;;;4.50;1.67;;;12.90;99.20;;;;;;4935668;28;103903;-72
2022/09/16 05:58:59;;;;;;;4.35;1.30;;;12.90;99.10;;;;;;4937548;28;92495;-72
2022/09/16 06:01:29;;;;;;;6.22;1.45;;;12.90;99.10;;;;;;4952723;28;92562;-72
2022/09/16 06:03:58;;;;;;;6.22;2.08;;;12.90;99.00;;;;;;4937488;28;93032;-72
2022/09/16 06:06:28;;;;;;;5.82;2.83;;;12.90;98.90;;;;;;4936260;28;95501;-72
2022/09/16 06:08:58;;;;;;;8.23;1.40;;;12.90;98.90;;;;;;4936327;28;92645;-72
2022/09/16 06:11:26;;;;;;;4.10;1.17;;;12.90;98.90;;;;;;4937320;28;92476;-73
2022/09/16 06:13:55;;;;;;;7.22;1.48;;;12.90;98.80;;;;;;4935449;28;108718;-72
2022/09/16 06:16:27;;;;;;;6.10;1.63;;;12.90;98.80;;;;;;4936856;28;95311;-72
2022/09/16 06:18:54;;;;;;;4.68;1.23;;;12.90;98.70;;;;;;4935672;28;92470;-72
2022/09/16 06:21:23;;;;;;;5.45;1.40;;;13.00;98.60;;;;;;4937324;28;92500;-72
2022/09/16 06:23:51;;;;;;;3.78;1.10;;;13.10;98.50;;;;;;4936718;28;93284;-73
2022/09/16 06:26:19;;;;;;;5.88;2.42;;;13.30;98.40;;;;;;4936229;28;93062;-73
2022/09/16 06:28:47;;;;;;;4.13;1.17;;;13.50;98.40;;;;;;4935397;28;96746;-72
2022/09/16 06:31:16;;;;;;;5.10;1.40;;;13.50;97.90;;;;;;4937615;28;91730;-73
2022/09/16 06:33:43;;;;;;;9.30;2.10;;;13.70;97.90;;;;;;4936741;28;93373;-72
2022/09/16 06:36:16;;;;;;;4.28;1.30;;;13.80;97.80;;;;;;4936936;28;93029;-73
2022/09/16 06:38:44;;;;;;;2.90;1.10;;;14.00;97.60;;;;;;4934497;28;94962;-73
2022/09/16 06:41:13;;;;;;;7.45;1.80;;;14.20;97.40;;;;;;4935029;28;92474;-72
2022/09/16 06:43:41;;;;;;;6.97;1.65;;;14.40;97.30;;;;;;4935229;28;97995;-73
2022/09/16 06:46:12;;;;;;;7.47;1.75;;;14.60;97.10;;;;;;4936754;28;92906;-72
2022/09/16 06:48:40;;;;;;;4.88;1.35;;;14.80;96.90;;;;;;4935555;28;92535;-72
2022/09/16 06:51:10;;;;;;;4.18;1.38;;;14.80;96.50;;;;;;4935462;28;92405;-72
2022/09/16 06:53:38;;;;;;;5.53;1.65;;;14.90;96.50;;;;;;4950879;28;93376;-72
2022/09/16 06:56:09;;;;;;;7.00;1.33;;;14.90;96.40;;;;;;4935305;28;93730;-72
2022/09/16 06:58:38;;;;;;;3.13;1.13;;;14.90;96.30;;;;;;4937095;28;92551;-72
2022/09/16 07:01:07;;;;;;;5.05;1.55;;;14.80;96.20;;;;;;4936773;28;92447;-72
2022/09/16 07:03:41;;;;;;;7.68;1.48;;;14.80;96.20;;;;;;4935302;28;95387;-72
2022/09/16 07:06:09;;;;;;;8.20;2.38;;;14.80;96.20;;;;;;4936842;28;95422;-72
2022/09/16 07:08:37;;;;;;;6.53;1.83;;;14.80;96.20;;;;;;4936323;28;94737;-72
2022/09/16 07:11:07;;;;;;;6.78;1.58;;;14.80;96.10;;;;;;4935608;28;92697;-72
2022/09/16 07:13:34;;;;;;;6.00;1.60;;;14.80;96.10;;;;;;4935156;28;95730;-73
2022/09/16 07:16:04;;;;;;;5.70;2.70;;;14.80;96.10;;;;;;4936160;28;92781;-72
2022/09/16 07:18:40;;;;;;;5.10;1.58;;;14.80;96.00;;;;;;4936890;28;92535;-73
2022/09/16 07:21:16;;;;;;;7.68;1.17;;;14.80;95.90;;;;;;4935506;28;93147;-73
2022/09/16 07:23:44;;;;;;;6.22;1.73;;;14.90;96.20;;;;;;4936618;28;92908;-72
2022/09/16 07:26:12;;;;;;;7.03;2.92;;;15.00;95.90;;;;;;4934358;28;103768;-72
2022/09/16 07:28:41;;;;;;;7.90;2.03;;;15.00;95.90;;;;;;4934213;28;95653;-73
2022/09/16 07:31:23;;;;;;;8.32;4.13;;;15.10;95.90;;;;;;4936355;28;92460;-73
2022/09/16 07:33:52;;;;;;;12.60;8.85;;;15.20;95.90;;;;;;4949300;28;93117;-73
2022/09/16 07:36:25;;;;;;;6.97;4.85;;;15.40;95.70;;;;;;4934798;28;94750;-73
2022/09/16 07:38:56;;;;;;;10.25;7.05;;;15.60;95.40;;;;;;4950933;28;93027;-73
2022/09/16 07:41:29;;;;;;;204.57;196.40;;;15.80;95.00;;;;;;4951056;28;92684;-73
2022/09/16 07:43:58;;;;;;;25.95;24.35;;;16.00;94.60;;;;;;4933318;28;95898;-72
2022/09/16 07:46:30;;;;;;;8.65;1.67;;;16.20;94.50;;;;;;4935499;28;106745;-73
2022/09/16 07:48:59;;;;;;;7.83;2.00;;;16.50;94.10;;;;;;4936430;28;92473;-73
2022/09/16 07:51:27;;;;;;;6.95;2.13;;;16.70;93.50;;;;;;4936292;28;92882;-73
2022/09/16 07:53:59;;;;;;;7.35;3.05;;;16.80;93.30;;;;;;4934759;28;95654;-73
2022/09/16 07:56:30;;;;;;;10.10;6.38;;;16.80;92.90;;;;;;4935684;28;95528;-73
2022/09/16 07:58:57;;;;;;;8.48;6.93;;;17.10;93.00;;;;;;4934234;28;92566;-73
2022/09/16 08:01:25;;;;;;;8.50;1.65;;;17.50;92.20;;;;;;4934729;28;92518;-73
2022/09/16 08:03:52;;;;;;;10.13;7.55;;;18.00;91.60;;;;;;4935166;28;105708;-73
2022/09/16 08:06:22;;;;;;;9.98;6.88;;;18.50;91.10;;;;;;4937459;28;93227;-73
2022/09/16 08:08:54;;;;;;;7.15;5.28;;;19.10;90.30;;;;;;4937634;28;92483;-73
2022/09/16 08:11:22;;;;;;;9.55;6.57;;;19.70;88.50;;;;;;4938252;28;91762;-73
2022/09/16 08:13:49;;;;;;;6.18;5.47;;;20.20;86.90;;;;;;4938863;28;93077;-73
2022/09/16 08:16:19;;;;;;;7.75;5.78;;;20.60;85.00;;;;;;4938809;28;93015;-73
2022/09/16 08:18:49;;;;;;;7.65;6.95;;;21.10;83.50;;;;;;4938194;28;94838;-73
2022/09/16 08:21:20;;;;;;;8.18;2.92;;;21.60;81.20;;;;;;4939359;28;92976;-73
2022/09/16 08:23:47;;;;;;;8.02;4.05;;;21.90;78.60;;;;;;4939077;28;93055;-73
2022/09/16 08:26:18;;;;;;;8.70;2.13;;;22.10;77.40;;;;;;4936781;28;111672;-73
2022/09/16 08:28:46;;;;;;;5.40;2.10;;;22.30;76.30;;;;;;4938083;28;92385;-73
2022/09/16 08:31:33;;;;;;;8.07;2.05;;;22.40;75.00;;;;;;4937943;28;92980;-73
2022/09/16 08:34:00;;;;;;;5.47;1.73;;;22.30;73.30;;;;;;4938241;28;93467;-73
2022/09/16 08:36:27;;;;;;;6.13;2.28;;;21.90;72.90;;;;;;4939258;28;92940;-73
2022/09/16 08:38:55;;;;;;;7.97;2.17;;;21.50;72.30;;;;;;4937269;28;92579;-73
2022/09/16 08:41:36;;;;;;;7.00;3.05;;;21.00;74.20;;;;;;4938748;28;92496;-73
2022/09/16 08:44:19;;;;;;;8.10;2.55;;;20.70;74.50;;;;;;4935936;28;98085;-73
2022/09/16 08:46:53;;;;;;;8.63;2.60;;;20.30;76.20;;;;;;4936302;28;97941;-73
2022/09/16 08:49:42;;;;;;;7.70;3.20;;;19.80;77.70;;;;;;4939176;28;92641;-73
2022/09/16 08:52:34;;;;;;;8.10;2.28;;;19.60;78.80;;;;;;4953202;28;92565;-73
2022/09/16 08:55:13;;;;;;;11.88;3.47;;;19.30;80.00;;;;;;4938046;28;94815;-73
2022/09/16 08:57:50;;;;;;;10.40;2.67;;;19.10;80.40;;;;;;4938580;28;92914;-73
2022/09/16 09:00:18;;;;;;;10.00;1.70;;;18.90;80.50;;;;;;4938624;28;92781;-73
2022/09/16 09:02:59;;;;;;;11.98;2.72;;;18.60;79.20;;;;;;4939045;28;91727;-73
2022/09/16 09:05:44;;;;;;;8.95;2.70;;;18.50;80.90;;;;;;4936896;28;93522;-73
2022/09/16 09:08:41;;;;;;;6.05;1.80;;;18.40;80.60;;;;;;4938297;28;93088;-73
2022/09/16 09:11:42;;;;;;;7.88;2.58;;;18.30;81.10;;;;;;4936061;28;94911;-73
2022/09/16 09:14:21;;;;;;;8.85;2.10;;;18.30;81.10;;;;;;4937000;28;92554;-73
2022/09/16 09:17:26;;;;;;;5.97;3.15;;;18.10;81.00;;;;;;4936493;28;93281;-73
2022/09/16 09:20:00;;;;;;;;;;;18.10;80.20;;;;;;4936961;28;95708;-72
2022/09/16 09:22:48;;;;;;;7.75;2.03;;;17.90;79.40;;;;;;4939461;28;92450;-73
2022/09/16 09:25:34;;;;;;;7.32;1.75;;;17.90;80.80;;;;;;4938233;28;93246;-72
2022/09/16 09:28:22;;;;;;;7.53;1.80;;;18.00;80.80;;;;;;4938220;28;93265;-72
2022/09/16 09:30:55;;;;;;;6.20;2.17;;;18.10;80.90;;;;;;4938308;28;92617;-72
2022/09/16 09:33:43;;;;;;;8.98;2.85;;;18.10;78.00;;;;;;4938178;28;92380;-72
2022/09/16 09:36:33;;;;;;;9.52;2.05;;;18.10;78.70;;;;;;4938098;28;93028;-72
2022/09/16 09:39:25;;;;;;;11.43;3.80;;;18.20;78.80;;;;;;4951317;28;95817;-72
2022/09/16 09:42:26;;;;;;;6.97;2.92;;;18.40;78.30;;;;;;4936163;28;97867;-72
2022/09/16 09:45:11;;;;;;;6.03;1.77;;;18.60;77.00;;;;;;4936829;28;94904;-72
2022/09/16 09:48:21;;;;;;;8.60;2.65;;;18.90;76.50;;;;;;4938071;28;92496;-72
2022/09/16 09:50:49;;;;;;;11.73;2.30;;;19.10;73.00;;;;;;4952629;28;93195;-72
2022/09/16 09:53:59;;;;;;;9.75;2.55;;;19.00;74.00;;;;;;4936092;28;92955;-72
2022/09/16 09:56:40;;;;;;;15.50;4.47;;;18.90;72.90;;;;;;4919008;28;92663;-72
2022/09/16 09:59:29;;;;;;;10.32;2.90;;;18.80;72.50;;;;;;4935877;28;91753;-72
2022/09/16 10:01:59;;;;;;;8.10;2.17;;;18.70;71.50;;;;;;4936966;28;93897;-72
2022/09/16 10:04:35;;;;;;;9.00;1.95;;;18.60;72.10;;;;;;4936203;28;95549;-72
2022/09/16 10:07:04;;;;;;;8.30;1.85;;;18.70;71.40;;;;;;4934845;28;94868;-72
2022/09/16 10:09:33;;;;;;;8.57;2.20;;;18.80;72.10;;;;;;4937702;28;92484;-72
2022/09/16 10:12:00;;;;;;;10.82;1.90;;;18.90;69.90;;;;;;4937430;28;93853;-72
2022/09/16 10:14:32;;;;;;;7.22;2.83;;;18.80;70.50;;;;;;4937259;28;92903;-72
2022/09/16 10:17:04;;;;;;;11.95;2.58;;;18.70;72.90;;;;;;4937791;28;92450;-72
2022/09/16 10:19:38;;;;;;;7.63;1.95;;;18.40;73.00;;;;;;4936380;28;92523;-75
2022/09/16 10:22:20;;;;;;;9.60;2.53;;;18.20;73.90;;;;;;4937076;28;93315;-72
2022/09/16 10:24:54;;;;;;;4.55;2.45;;;18.00;73.90;;;;;;4937967;28;92996;-72
2022/09/16 10:27:21;;;;;;;;;;;17.80;73.30;;;;;;4937781;28;92400;-72
2022/09/16 10:30:01;;;;;;;4.55;2.55;;;17.80;74.50;;;;;;4938615;28;92429;-72
2022/09/16 10:32:28;;;;;;;8.27;2.38;;;18.00;75.00;;;;;;4935791;28;95517;-74
2022/09/16 10:34:55;;;;;;;4.90;1.40;;;18.30;75.00;;;;;;4935563;28;95202;-75
2022/09/16 10:37:26;;;;;;;5.72;1.67;;;18.60;74.00;;;;;;4936932;28;92957;-73
2022/09/16 10:39:57;;;;;;;4.85;1.55;;;18.60;71.00;;;;;;4935669;28;93061;-72
2022/09/16 10:42:26;;;;;;;7.20;2.45;;;18.60;69.70;;;;;;4935643;28;92943;-72
2022/09/16 10:45:09;;;;;;;5.63;2.13;;;18.60;69.90;;;;;;4951537;28;93194;-72
2022/09/16 10:47:37;;;;;;;5.83;2.07;;;18.70;71.40;;;;;;4937125;28;92744;-72
2022/09/16 10:50:05;;;;;;;7.72;2.13;;;18.80;71.20;;;;;;4952292;28;91862;-72
2022/09/16 10:52:44;;;;;;;6.05;1.90;;;19.00;70.60;;;;;;4935741;28;93962;-72
2022/09/16 10:55:36;;;;;;;7.93;3.72;;;19.20;71.00;;;;;;4936863;28;92463;-72
2022/09/16 10:58:15;;;;;;;5.68;1.55;;;19.40;70.60;;;;;;4935852;28;95804;-72
2022/09/16 11:01:06;;;;;;;7.70;2.22;;;19.50;71.50;;;;;;4936992;28;92557;-72
2022/09/16 11:03:39;;;;;;;5.03;2.60;;;19.70;71.60;;;;;;4935227;28;93318;-72
2022/09/16 11:06:30;;;;;;;5.68;2.80;;;19.80;70.50;;;;;;4936739;28;92772;-72
2022/09/16 11:09:32;;;;;;;5.28;1.65;;;19.90;71.60;;;;;;4935191;28;93095;-72
2022/09/16 11:12:18;;;;;;;8.23;2.72;;;20.20;69.40;;;;;;4924164;28;92467;-72
2022/09/16 11:14:58;;;;;;;7.82;2.85;;;20.30;67.80;;;;;;4936191;28;93397;-72
2022/09/16 11:17:49;;;;;;;10.13;2.17;;;20.30;69.80;;;;;;4936519;28;93103;-72
2022/09/16 11:20:40;;;;;;;5.22;2.65;;;20.30;69.20;;;;;;4936817;28;92549;-73
2022/09/16 11:23:29;;;;;;;7.85;3.00;;;19.90;69.00;;;;;;4936561;28;92434;-72
2022/09/16 11:26:03;;;;;;;5.82;2.25;;;19.60;69.70;;;;;;4935167;28;95699;-72
2022/09/16 11:28:41;;;;;;;9.48;2.35;;;19.20;70.00;;;;;;4936155;28;95325;-72
2022/09/16 11:31:25;;;;;;;7.35;1.85;;;19.20;70.60;;;;;;4936467;28;92421;-72
2022/09/16 11:34:04;;;;;;;6.22;2.03;;;19.50;71.40;;;;;;4936845;28;93196;-72
2022/09/16 11:36:40;;;;;;;7.18;1.45;;;19.60;68.90;;;;;;4934948;28;93346;-72
2022/09/16 11:39:30;;;;;;;7.10;3.55;;;19.60;68.10;;;;;;4934913;28;92830;-72
2022/09/16 11:42:12;;;;;;;4.45;1.10;;;19.70;69.10;;;;;;4937783;28;93046;-72
2022/09/16 11:44:51;;;;;;;4.63;1.88;;;19.50;67.70;;;;;;4955042;28;91679;-72
2022/09/16 11:47:33;;;;;;;6.80;1.63;;;19.30;67.30;;;;;;4939504;28;93251;-72
2022/09/16 11:50:22;;;;;;;4.75;2.90;;;19.40;68.00;;;;;;4938092;28;95437;-72
2022/09/16 11:52:57;;;;;;;7.05;2.30;;;19.60;66.80;;;;;;4937150;28;94872;-72
2022/09/16 11:55:55;;;;;;;3.97;2.75;;;19.70;74.30;;;;;;4938813;28;92940;-72
2022/09/16 11:58:41;;;;;;;3.53;1.30;;;19.30;75.40;;;;;;4939257;28;93200;-72
2022/09/16 12:01:35;;;;;;;5.15;2.65;;;19.00;77.10;;;;;;4939471;28;93218;-72
2022/09/16 12:04:17;;;;;;;4.55;1.65;;;18.90;75.20;;;;;;4939578;28;92429;-72
2022/09/16 12:07:02;;;;;;;6.32;2.33;;;18.90;74.50;;;;;;4937825;28;92582;-72
2022/09/16 12:09:54;;;;;;;7.45;1.92;;;19.10;73.60;;;;;;4939055;28;93311;-72
2022/09/16 12:12:38;;;;;;;8.23;1.85;;;19.30;74.30;;;;;;4937764;28;93014;-72
2022/09/16 12:15:12;;;;;;;;;;;19.50;72.00;;;;;;4939865;28;92400;-72
2022/09/16 12:17:46;;;;;;;5.85;3.42;;;19.60;73.60;;;;;;4940537;28;93023;-72
2022/09/16 12:20:24;;;;;;;4.65;1.77;;;19.70;69.10;;;;;;4938223;28;95962;-72
2022/09/16 12:22:58;;;;;;;5.88;1.67;;;19.90;68.50;;;;;;4939218;28;97284;-72
2022/09/16 12:25:40;;;;;;;9.40;2.10;;;20.00;68.20;;;;;;4937685;28;92440;-72
2022/09/16 12:28:18;;;;;;;5.68;1.70;;;20.30;69.20;;;;;;4938070;28;93060;-72
2022/09/16 12:30:49;;;;;;;4.93;2.53;;;20.30;63.10;;;;;;4939023;28;93562;-72
2022/09/16 12:33:28;;;;;;;5.00;2.60;;;20.30;62.60;;;;;;4939038;28;92959;-72
2022/09/16 12:36:17;;;;;;;7.65;3.28;;;20.20;63.30;;;;;;4939079;28;93340;-72
2022/09/16 12:38:45;;;;;;;9.82;1.60;;;20.30;63.80;;;;;;4938171;28;92287;-72
2022/09/16 12:41:42;;;;;;;8.52;2.67;;;20.30;63.20;;;;;;4953423;28;93365;-72
2022/09/16 12:44:45;;;;;;;5.72;1.73;;;20.40;62.40;;;;;;4939000;28;92977;-73
2022/09/16 12:47:17;;;;;;;10.90;2.00;;;20.30;63.20;;;;;;4937634;28;94851;-72
2022/09/16 12:50:22;;;;;;;6.77;2.77;;;20.30;62.90;;;;;;4937240;28;92483;-72
2022/09/16 12:53:09;;;;;;;5.10;1.95;;;20.30;62.90;;;;;;4936252;28;92958;-72
2022/09/16 12:56:00;;;;;;;11.90;2.42;;;20.20;64.20;;;;;;4938278;28;92995;-72
2022/09/16 12:58:54;;;;;;;8.50;3.60;;;20.30;64.90;;;;;;4938415;28;92498;-72
2022/09/16 13:01:29;;;;;;;10.18;2.22;;;20.20;64.60;;;;;;4937682;28;92436;-72
2022/09/16 13:04:09;;;;;;;15.25;2.95;;;19.80;65.80;;;;;;4938717;28;93004;-72
2022/09/16 13:06:43;;;;;;;10.68;2.35;;;19.70;66.70;;;;;;4938627;28;93075;-72
2022/09/16 13:09:24;;;;;;;10.27;3.20;;;19.70;66.40;;;;;;4937508;28;92676;-72
2022/09/16 13:12:01;;;;;;;12.20;3.40;;;19.80;67.10;;;;;;4937011;28;92509;-72
2022/09/16 13:14:57;;;;;;;10.80;2.80;;;19.90;66.90;;;;;;4936958;28;95582;-72
2022/09/16 13:17:29;;;;;;;9.15;2.63;;;20.20;65.90;;;;;;4936979;28;95605;-72
2022/09/16 13:20:18;;;;;;;9.55;2.53;;;20.10;64.60;;;;;;4936885;28;92451;-72
2022/09/16 13:22:57;;;;;;;12.32;3.05;;;20.00;64.70;;;;;;4937041;28;92506;-72
2022/09/16 13:25:45;;;;;;;6.68;1.88;;;19.80;66.20;;;;;;4938166;28;93198;-72
2022/09/16 13:28:40;;;;;;;9.52;2.40;;;19.50;67.80;;;;;;4938136;28;92973;-72
2022/09/16 13:31:10;;;;;;;10.13;3.75;;;19.40;69.00;;;;;;4937079;28;92468;-72
2022/09/16 13:33:58;;;;;;;12.77;3.58;;;19.30;67.80;;;;;;4937141;28;91659;-72